sensor_id;sensor_type;location;lat;lon;timestamp;pressure;altitude;pressure_sealevel;temperature;humidity
75656;BME280;64252;51.094;13.714;2022-11-20T00:01:28;100192.75;;;-6.50;98.23
75656;BME280;64252;51.094;13.714;2022-11-20T00:03:55;100193.63;;;-6.60;98.51
75656;BME280;64252;51.094;13.714;2022-11-20T00:06:22;100191.41;;;-6.63;98.14
75656;BME280;64252;51.094;13.714;2022-11-20T00:08:47;100195.84;;;-6.67;98.18
75656;BME280;64252;51.094;13.714;2022-11-20T00:11:19;100190.34;;;-6.67;97.82
75656;BME280;64252;51.094;13.714;2022-11-20T00:13:46;100184.25;;;-6.59;98.01
75656;BME280;64252;51.094;13.714;2022-11-20T00:16:14;100181.50;;;-6.54;98.81
75656;BME280;64252;51.094;13.714;2022-11-20T00:18:41;100179.63;;;-6.63;98.43
75656;BME280;64252;51.094;13.714;2022-11-20T00:21:13;100182.91;;;-6.61;98.18
75656;BME280;64252;51.094;13.714;2022-11-20T00:23:39;100181.00;;;-6.66;97.95
75656;BME280;64252;51.094;13.714;2022-11-20T00:26:07;100182.09;;;-6.62;98.33
75656;BME280;64252;51.094;13.714;2022-11-20T00:28:35;100184.81;;;-6.57;97.90
75656;BME280;64252;51.094;13.714;2022-11-20T00:31:12;100189.81;;;-6.64;98.06
75656;BME280;64252;51.094;13.714;2022-11-20T00:33:38;100191.38;;;-6.53;98.45
75656;BME280;64252;51.094;13.714;2022-11-20T00:36:11;100193.06;;;-6.62;97.31
75656;BME280;64252;51.094;13.714;2022-11-20T00:38:37;100193.06;;;-6.57;97.22
75656;BME280;64252;51.094;13.714;2022-11-20T00:41:05;100201.00;;;-6.50;96.71
75656;BME280;64252;51.094;13.714;2022-11-20T00:43:31;100200.22;;;-6.61;97.17
75656;BME280;64252;51.094;13.714;2022-11-20T00:45:58;100204.06;;;-6.62;96.70
75656;BME280;64252;51.094;13.714;2022-11-20T00:48:24;100203.47;;;-6.59;97.15
75656;BME280;64252;51.094;13.714;2022-11-20T00:50:50;100204.03;;;-6.57;97.05
75656;BME280;64252;51.094;13.714;2022-11-20T00:53:15;100213.34;;;-6.53;97.37
75656;BME280;64252;51.094;13.714;2022-11-20T00:55:41;100202.94;;;-6.56;97.07
75656;BME280;64252;51.094;13.714;2022-11-20T00:58:06;100207.34;;;-6.55;96.37
75656;BME280;64252;51.094;13.714;2022-11-20T01:00:32;100209.53;;;-6.62;96.64
75656;BME280;64252;51.094;13.714;2022-11-20T01:02:57;100203.47;;;-6.59;97.44
75656;BME280;64252;51.094;13.714;2022-11-20T01:05:23;100205.69;;;-6.61;97.39
75656;BME280;64252;51.094;13.714;2022-11-20T01:07:49;100205.16;;;-6.68;96.68
75656;BME280;64252;51.094;13.714;2022-11-20T01:10:14;100208.72;;;-6.62;96.66
75656;BME280;64252;51.094;13.714;2022-11-20T01:12:40;100212.03;;;-6.60;97.54
75656;BME280;64252;51.094;13.714;2022-11-20T01:15:05;100209.03;;;-6.64;96.93
75656;BME280;64252;51.094;13.714;2022-11-20T01:17:32;100207.91;;;-6.68;97.58
75656;BME280;64252;51.094;13.714;2022-11-20T01:19:57;100205.72;;;-6.71;97.62
75656;BME280;64252;51.094;13.714;2022-11-20T01:22:23;100206.84;;;-6.82;97.05
75656;BME280;64252;51.094;13.714;2022-11-20T01:24:48;100203.31;;;-6.83;97.23
75656;BME280;64252;51.094;13.714;2022-11-20T01:27:14;100201.91;;;-6.80;97.73
75656;BME280;64252;51.094;13.714;2022-11-20T01:29:39;100196.19;;;-6.84;97.40
75656;BME280;64252;51.094;13.714;2022-11-20T01:32:05;100200.28;;;-6.81;97.81
75656;BME280;64252;51.094;13.714;2022-11-20T01:34:30;100198.94;;;-6.89;97.55
75656;BME280;64252;51.094;13.714;2022-11-20T01:36:56;100208.53;;;-6.96;97.17
75656;BME280;64252;51.094;13.714;2022-11-20T01:39:24;100197.03;;;-6.93;98.22
75656;BME280;64252;51.094;13.714;2022-11-20T01:41:51;100195.38;;;-6.94;97.13
75656;BME280;64252;51.094;13.714;2022-11-20T01:47:17;100189.31;;;-6.91;97.27
75656;BME280;64252;51.094;13.714;2022-11-20T01:49:52;100183.00;;;-6.87;97.67
75656;BME280;64252;51.094;13.714;2022-11-20T01:52:24;100192.06;;;-6.91;96.96
75656;BME280;64252;51.094;13.714;2022-11-20T01:55:07;100184.16;;;-6.98;97.63
75656;BME280;64252;51.094;13.714;2022-11-20T01:57:35;100188.50;;;-6.92;96.92
75656;BME280;64252;51.094;13.714;2022-11-20T02:00:07;100178.91;;;-6.89;97.46
75656;BME280;64252;51.094;13.714;2022-11-20T02:02:41;100171.25;;;-6.92;96.85
75656;BME280;64252;51.094;13.714;2022-11-20T02:07:59;100172.09;;;-7.02;97.24
75656;BME280;64252;51.094;13.714;2022-11-20T02:10:26;100167.16;;;-7.15;96.67
75656;BME280;64252;51.094;13.714;2022-11-20T02:12:52;100177.63;;;-7.22;97.19
75656;BME280;64252;51.094;13.714;2022-11-20T02:15:37;100168.00;;;-7.25;98.01
75656;BME280;64252;51.094;13.714;2022-11-20T02:18:03;100168.56;;;-7.28;97.50
75656;BME280;64252;51.094;13.714;2022-11-20T02:20:29;100169.66;;;-7.24;97.26
75656;BME280;64252;51.094;13.714;2022-11-20T02:23:20;100174.03;;;-7.13;97.99
75656;BME280;64252;51.094;13.714;2022-11-20T02:25:45;100163.59;;;-7.11;97.11
75656;BME280;64252;51.094;13.714;2022-11-20T02:28:11;100168.53;;;-7.07;96.96
75656;BME280;64252;51.094;13.714;2022-11-20T02:30:36;100154.50;;;-7.06;96.44
75656;BME280;64252;51.094;13.714;2022-11-20T02:33:02;100157.25;;;-7.01;97.52
75656;BME280;64252;51.094;13.714;2022-11-20T02:37:54;100157.53;;;-6.97;97.62
75656;BME280;64252;51.094;13.714;2022-11-20T02:40:21;100152.06;;;-7.07;97.24
75656;BME280;64252;51.094;13.714;2022-11-20T02:42:47;100152.06;;;-7.02;97.08
75656;BME280;64252;51.094;13.714;2022-11-20T02:45:13;100159.16;;;-6.96;96.93
75656;BME280;64252;51.094;13.714;2022-11-20T02:47:38;100158.06;;;-6.95;96.23
75656;BME280;64252;51.094;13.714;2022-11-20T02:50:04;100161.34;;;-6.93;96.40
75656;BME280;64252;51.094;13.714;2022-11-20T02:52:30;100165.78;;;-7.07;95.77
75656;BME280;64252;51.094;13.714;2022-11-20T02:54:56;100170.19;;;-7.06;95.84
75656;BME280;64252;51.094;13.714;2022-11-20T02:57:21;100160.28;;;-7.02;95.99
75656;BME280;64252;51.094;13.714;2022-11-20T02:59:47;100171.28;;;-7.13;96.19
75656;BME280;64252;51.094;13.714;2022-11-20T03:02:12;100161.97;;;-7.22;96.54
75656;BME280;64252;51.094;13.714;2022-11-20T03:04:38;100164.16;;;-7.24;96.93
75656;BME280;64252;51.094;13.714;2022-11-20T03:07:04;100157.00;;;-7.15;96.27
75656;BME280;64252;51.094;13.714;2022-11-20T03:09:30;100163.59;;;-7.11;96.67
75656;BME280;64252;51.094;13.714;2022-11-20T03:11:56;100167.44;;;-7.12;96.91
75656;BME280;64252;51.094;13.714;2022-11-20T03:14:21;100157.84;;;-7.24;96.81
75656;BME280;64252;51.094;13.714;2022-11-20T03:16:47;100155.94;;;-7.24;96.22
75656;BME280;64252;51.094;13.714;2022-11-20T03:19:12;100156.50;;;-7.17;96.80
75656;BME280;64252;51.094;13.714;2022-11-20T03:21:38;100158.16;;;-7.21;96.32
75656;BME280;64252;51.094;13.714;2022-11-20T03:24:04;100152.09;;;-7.18;96.49
75656;BME280;64252;51.094;13.714;2022-11-20T03:26:30;100148.78;;;-7.10;96.92
75656;BME280;64252;51.094;13.714;2022-11-20T03:28:57;100144.41;;;-7.16;95.88
75656;BME280;64252;51.094;13.714;2022-11-20T03:31:29;100137.88;;;-7.30;96.64
75656;BME280;64252;51.094;13.714;2022-11-20T03:33:58;100151.03;;;-7.32;96.34
75656;BME280;64252;51.094;13.714;2022-11-20T03:36:24;100141.16;;;-7.28;96.72
75656;BME280;64252;51.094;13.714;2022-11-20T03:38:53;100138.97;;;-7.26;97.18
75656;BME280;64252;51.094;13.714;2022-11-20T03:41:21;100137.28;;;-7.22;97.36
75656;BME280;64252;51.094;13.714;2022-11-20T03:43:51;100142.78;;;-7.27;97.40
75656;BME280;64252;51.094;13.714;2022-11-20T03:46:17;100138.44;;;-7.43;96.33
75656;BME280;64252;51.094;13.714;2022-11-20T03:48:43;100145.56;;;-7.47;96.85
75656;BME280;64252;51.094;13.714;2022-11-20T03:51:13;100146.94;;;-7.44;96.57
75656;BME280;64252;51.094;13.714;2022-11-20T03:53:41;100151.03;;;-7.42;97.65
75656;BME280;64252;51.094;13.714;2022-11-20T03:56:09;100153.25;;;-7.44;97.28
75656;BME280;64252;51.094;13.714;2022-11-20T03:58:36;100153.22;;;-7.39;96.47
75656;BME280;64252;51.094;13.714;2022-11-20T04:01:27;100150.47;;;-7.34;97.02
75656;BME280;64252;51.094;13.714;2022-11-20T04:03:54;100148.84;;;-7.35;97.17
75656;BME280;64252;51.094;13.714;2022-11-20T04:06:26;100141.16;;;-7.38;97.24
75656;BME280;64252;51.094;13.714;2022-11-20T04:08:54;100138.16;;;-7.41;96.51
75656;BME280;64252;51.094;13.714;2022-11-20T04:11:29;100145.88;;;-7.53;97.31
75656;BME280;64252;51.094;13.714;2022-11-20T04:13:57;100143.41;;;-7.60;97.12
75656;BME280;64252;51.094;13.714;2022-11-20T04:16:24;100134.09;;;-7.64;97.04
75656;BME280;64252;51.094;13.714;2022-11-20T04:18:55;100141.47;;;-7.60;97.40
75656;BME280;64252;51.094;13.714;2022-11-20T04:21:22;100135.72;;;-7.58;96.46
75656;BME280;64252;51.094;13.714;2022-11-20T04:23:48;100131.09;;;-7.68;96.56
75656;BME280;64252;51.094;13.714;2022-11-20T04:26:14;100124.78;;;-7.73;96.65
75656;BME280;64252;51.094;13.714;2022-11-20T04:28:40;100123.13;;;-7.74;96.50
75656;BME280;64252;51.094;13.714;2022-11-20T04:33:33;100117.09;;;-7.71;96.38
75656;BME280;64252;51.094;13.714;2022-11-20T04:36:03;100122.03;;;-7.73;97.04
75656;BME280;64252;51.094;13.714;2022-11-20T04:38:29;100105.59;;;-7.68;96.92
75656;BME280;64252;51.094;13.714;2022-11-20T04:41:03;100112.16;;;-7.69;97.04
75656;BME280;64252;51.094;13.714;2022-11-20T04:43:29;100102.84;;;-7.68;96.83
75656;BME280;64252;51.094;13.714;2022-11-20T04:45:56;100106.94;;;-7.66;97.00
75656;BME280;64252;51.094;13.714;2022-11-20T04:48:23;100108.84;;;-7.61;96.91
75656;BME280;64252;51.094;13.714;2022-11-20T04:50:49;100112.69;;;-7.57;97.60
75656;BME280;64252;51.094;13.714;2022-11-20T04:53:15;100110.50;;;-7.60;97.13
75656;BME280;64252;51.094;13.714;2022-11-20T04:55:40;100110.50;;;-7.55;96.09
75656;BME280;64252;51.094;13.714;2022-11-20T04:58:06;100122.81;;;-7.58;95.94
75656;BME280;64252;51.094;13.714;2022-11-20T05:00:32;100121.44;;;-7.50;95.95
75656;BME280;64252;51.094;13.714;2022-11-20T05:02:57;100129.44;;;-7.59;96.61
75656;BME280;64252;51.094;13.714;2022-11-20T05:05:23;100114.88;;;-7.54;96.20
75656;BME280;64252;51.094;13.714;2022-11-20T05:07:48;100123.63;;;-7.52;95.82
75656;BME280;64252;51.094;13.714;2022-11-20T05:10:14;100115.41;;;-7.52;96.48
75656;BME280;64252;51.094;13.714;2022-11-20T05:12:40;100135.16;;;-7.55;95.72
75656;BME280;64252;51.094;13.714;2022-11-20T05:15:06;100123.38;;;-7.61;96.19
75656;BME280;64252;51.094;13.714;2022-11-20T05:17:31;100117.06;;;-7.56;96.11
75656;BME280;64252;51.094;13.714;2022-11-20T05:19:57;100110.50;;;-7.60;95.01
75656;BME280;64252;51.094;13.714;2022-11-20T05:22:23;100115.97;;;-7.60;95.83
75656;BME280;64252;51.094;13.714;2022-11-20T05:24:48;100122.81;;;-7.58;95.24
75656;BME280;64252;51.094;13.714;2022-11-20T05:27:14;100112.69;;;-7.62;95.50
75656;BME280;64252;51.094;13.714;2022-11-20T05:29:39;100124.72;;;-7.53;96.00
75656;BME280;64252;51.094;13.714;2022-11-20T05:32:06;100119.81;;;-7.61;95.37
75656;BME280;64252;51.094;13.714;2022-11-20T05:34:35;100113.25;;;-7.75;95.42
75656;BME280;64252;51.094;13.714;2022-11-20T05:37:00;100118.75;;;-7.85;96.13
75656;BME280;64252;51.094;13.714;2022-11-20T05:39:26;100111.63;;;-7.86;96.18
75656;BME280;64252;51.094;13.714;2022-11-20T05:41:51;100103.13;;;-7.85;95.58
75656;BME280;64252;51.094;13.714;2022-11-20T05:44:37;100105.59;;;-7.93;96.46
75656;BME280;64252;51.094;13.714;2022-11-20T05:47:02;100108.34;;;-7.88;96.35
75656;BME280;64252;51.094;13.714;2022-11-20T05:49:28;100112.72;;;-7.82;95.73
75656;BME280;64252;51.094;13.714;2022-11-20T05:51:53;100107.78;;;-7.85;95.40
75656;BME280;64252;51.094;13.714;2022-11-20T05:54:19;100106.69;;;-7.79;95.99
75656;BME280;64252;51.094;13.714;2022-11-20T05:56:44;100109.97;;;-7.72;96.02
75656;BME280;64252;51.094;13.714;2022-11-20T05:59:10;100100.63;;;-7.66;96.64
75656;BME280;64252;51.094;13.714;2022-11-20T06:01:35;100106.69;;;-7.74;96.20
75656;BME280;64252;51.094;13.714;2022-11-20T06:04:01;100101.78;;;-7.82;96.20
75656;BME280;64252;51.094;13.714;2022-11-20T06:06:27;100105.84;;;-7.70;95.61
75656;BME280;64252;51.094;13.714;2022-11-20T06:08:53;100107.78;;;-7.75;95.43
75656;BME280;64252;51.094;13.714;2022-11-20T06:11:19;100111.59;;;-7.76;95.74
75656;BME280;64252;51.094;13.714;2022-11-20T06:13:46;100103.38;;;-7.71;95.76
75656;BME280;64252;51.094;13.714;2022-11-20T06:16:13;100091.34;;;-7.85;96.42
75656;BME280;64252;51.094;13.714;2022-11-20T06:18:39;100094.63;;;-7.93;96.35
75656;BME280;64252;51.094;13.714;2022-11-20T06:21:11;100083.13;;;-7.90;96.60
75656;BME280;64252;51.094;13.714;2022-11-20T06:23:37;100090.25;;;-7.79;95.37
75656;BME280;64252;51.094;13.714;2022-11-20T06:26:06;100083.13;;;-7.85;95.02
75656;BME280;64252;51.094;13.714;2022-11-20T06:28:33;100089.97;;;-7.78;95.45
75656;BME280;64252;51.094;13.714;2022-11-20T06:30:59;100080.94;;;-7.78;95.81
75656;BME280;64252;51.094;13.714;2022-11-20T06:33:24;100082.03;;;-7.84;95.31
75656;BME280;64252;51.094;13.714;2022-11-20T06:35:50;100074.38;;;-7.82;96.13
75656;BME280;64252;51.094;13.714;2022-11-20T06:38:16;100087.78;;;-7.81;96.07
75656;BME280;64252;51.094;13.714;2022-11-20T06:40:42;100081.50;;;-7.91;94.78
75656;BME280;64252;51.094;13.714;2022-11-20T06:43:09;100091.34;;;-7.95;95.24
75656;BME280;64252;51.094;13.714;2022-11-20T06:45:36;100090.25;;;-7.89;95.82
75656;BME280;64252;51.094;13.714;2022-11-20T06:48:02;100085.34;;;-7.87;96.29
75656;BME280;64252;51.094;13.714;2022-11-20T06:50:28;100089.16;;;-7.83;95.34
75656;BME280;64252;51.094;13.714;2022-11-20T06:52:54;100083.94;;;-7.70;95.98
75656;BME280;64252;51.094;13.714;2022-11-20T06:55:19;100079.28;;;-7.69;94.15
75656;BME280;64252;51.094;13.714;2022-11-20T06:57:45;100080.63;;;-7.62;94.57
75656;BME280;64252;51.094;13.714;2022-11-20T07:00:11;100080.59;;;-7.57;94.52
75656;BME280;64252;51.094;13.714;2022-11-20T07:02:37;100075.34;;;-7.38;94.90
75656;BME280;64252;51.094;13.714;2022-11-20T07:05:02;100070.94;;;-7.34;94.46
75656;BME280;64252;51.094;13.714;2022-11-20T07:07:28;100073.41;;;-7.32;94.41
75656;BME280;64252;51.094;13.714;2022-11-20T07:09:53;100081.91;;;-7.34;93.75
75656;BME280;64252;51.094;13.714;2022-11-20T07:12:20;100079.69;;;-7.22;94.35
75656;BME280;64252;51.094;13.714;2022-11-20T07:14:45;100072.00;;;-7.25;93.64
75656;BME280;64252;51.094;13.714;2022-11-20T07:17:11;100071.75;;;-7.23;92.97
75656;BME280;64252;51.094;13.714;2022-11-20T07:19:37;100083.53;;;-7.18;93.13
75656;BME280;64252;51.094;13.714;2022-11-20T07:22:02;100076.34;;;-7.08;93.31
75656;BME280;64252;51.094;13.714;2022-11-20T07:24:28;100076.91;;;-7.06;93.24
75656;BME280;64252;51.094;13.714;2022-11-20T07:26:55;100067.81;;;-7.02;93.53
75656;BME280;64252;51.094;13.714;2022-11-20T07:29:20;100069.72;;;-6.97;93.23
75656;BME280;64252;51.094;13.714;2022-11-20T07:31:47;100074.06;;;-6.91;92.83
75656;BME280;64252;51.094;13.714;2022-11-20T07:34:12;100071.28;;;-6.86;92.98
75656;BME280;64252;51.094;13.714;2022-11-20T07:36:39;100074.59;;;-6.84;93.12
75656;BME280;64252;51.094;13.714;2022-11-20T07:39:04;100067.97;;;-6.78;92.65
75656;BME280;64252;51.094;13.714;2022-11-20T07:41:30;100071.22;;;-6.71;92.45
75656;BME280;64252;51.094;13.714;2022-11-20T07:43:56;100060.22;;;-6.66;92.55
75656;BME280;64252;51.094;13.714;2022-11-20T07:46:21;100065.66;;;-6.56;92.70
75656;BME280;64252;51.094;13.714;2022-11-20T07:48:47;100068.59;;;-6.47;92.36
75656;BME280;64252;51.094;13.714;2022-11-20T07:51:13;100078.19;;;-6.45;92.05
75656;BME280;64252;51.094;13.714;2022-11-20T07:53:38;100069.91;;;-6.40;91.45
75656;BME280;64252;51.094;13.714;2022-11-20T07:56:04;100062.72;;;-6.31;91.52
75656;BME280;64252;51.094;13.714;2022-11-20T07:58:30;100058.81;;;-6.25;91.50
75656;BME280;64252;51.094;13.714;2022-11-20T08:01:02;100070.31;;;-6.17;91.01
75656;BME280;64252;51.094;13.714;2022-11-20T08:03:28;100060.34;;;-6.08;91.61
75656;BME280;64252;51.094;13.714;2022-11-20T08:05:58;100046.56;;;-6.03;91.25
75656;BME280;64252;51.094;13.714;2022-11-20T08:08:24;100050.84;;;-5.92;90.94
75656;BME280;64252;51.094;13.714;2022-11-20T08:10:49;100060.16;;;-5.88;90.33
75656;BME280;64252;51.094;13.714;2022-11-20T08:13:15;100052.78;;;-5.69;90.29
75656;BME280;64252;51.094;13.714;2022-11-20T08:15:59;100058.84;;;-5.67;90.14
75656;BME280;64252;51.094;13.714;2022-11-20T08:18:25;100055.44;;;-5.59;89.52
75656;BME280;64252;51.094;13.714;2022-11-20T08:20:50;100055.63;;;-5.50;89.81
75656;BME280;64252;51.094;13.714;2022-11-20T08:23:16;100047.56;;;-5.42;89.18
75656;BME280;64252;51.094;13.714;2022-11-20T08:25:41;100050.78;;;-5.35;88.99
75656;BME280;64252;51.094;13.714;2022-11-20T08:28:08;100049.25;;;-5.22;88.62
75656;BME280;64252;51.094;13.714;2022-11-20T08:30:36;100054.41;;;-5.15;88.17
75656;BME280;64252;51.094;13.714;2022-11-20T08:33:04;100057.03;;;-5.05;88.45
75656;BME280;64252;51.094;13.714;2022-11-20T08:35:36;100053.03;;;-4.94;88.38
75656;BME280;64252;51.094;13.714;2022-11-20T08:38:04;100046.34;;;-4.88;87.44
75656;BME280;64252;51.094;13.714;2022-11-20T08:40:29;100047.88;;;-4.77;87.88
75656;BME280;64252;51.094;13.714;2022-11-20T08:42:55;100041.19;;;-4.71;87.74
75656;BME280;64252;51.094;13.714;2022-11-20T08:45:21;100040.44;;;-4.58;87.68
75656;BME280;64252;51.094;13.714;2022-11-20T08:47:46;100045.56;;;-4.51;86.98
75656;BME280;64252;51.094;13.714;2022-11-20T08:50:13;100044.00;;;-4.38;85.95
75656;BME280;64252;51.094;13.714;2022-11-20T08:52:39;100038.91;;;-4.31;86.57
75656;BME280;64252;51.094;13.714;2022-11-20T08:55:06;100026.91;;;-4.22;86.05
75656;BME280;64252;51.094;13.714;2022-11-20T08:57:32;100025.94;;;-4.12;85.96
75656;BME280;64252;51.094;13.714;2022-11-20T08:59:58;100033.50;;;-4.04;86.15
75656;BME280;64252;51.094;13.714;2022-11-20T09:02:24;100024.56;;;-3.96;84.80
75656;BME280;64252;51.094;13.714;2022-11-20T09:04:50;100016.91;;;-3.85;84.87
75656;BME280;64252;51.094;13.714;2022-11-20T09:07:15;100006.81;;;-3.76;84.57
75656;BME280;64252;51.094;13.714;2022-11-20T09:09:41;100006.44;;;-3.70;84.56
75656;BME280;64252;51.094;13.714;2022-11-20T09:12:07;100000.19;;;-3.62;84.35
75656;BME280;64252;51.094;13.714;2022-11-20T09:14:32;99994.50;;;-3.51;84.73
75656;BME280;64252;51.094;13.714;2022-11-20T09:16:59;99994.38;;;-3.46;84.44
75656;BME280;64252;51.094;13.714;2022-11-20T09:19:25;99998.59;;;-3.35;83.87
75656;BME280;64252;51.094;13.714;2022-11-20T09:21:51;99997.88;;;-3.27;83.10
75656;BME280;64252;51.094;13.714;2022-11-20T09:24:17;100001.53;;;-3.18;82.60
75656;BME280;64252;51.094;13.714;2022-11-20T09:26:43;99994.19;;;-3.09;81.86
75656;BME280;64252;51.094;13.714;2022-11-20T09:32:56;99987.69;;;-2.91;79.41
75656;BME280;64252;51.094;13.714;2022-11-20T09:35:22;99995.13;;;-2.78;80.51
75656;BME280;64252;51.094;13.714;2022-11-20T09:37:50;100006.41;;;-2.74;80.18
75656;BME280;64252;51.094;13.714;2022-11-20T09:40:28;99997.06;;;-2.64;78.96
75656;BME280;64252;51.094;13.714;2022-11-20T09:54:32;99987.56;;;-2.14;77.41
75656;BME280;64252;51.094;13.714;2022-11-20T09:57:01;99983.19;;;-2.06;75.52
75656;BME280;64252;51.094;13.714;2022-11-20T09:59:43;99977.88;;;-2.03;77.13
75656;BME280;64252;51.094;13.714;2022-11-20T10:02:16;99982.50;;;-1.90;76.95
75656;BME280;64252;51.094;13.714;2022-11-20T10:04:58;99979.97;;;-1.78;75.88
75656;BME280;64252;51.094;13.714;2022-11-20T10:10:56;99974.66;;;-1.65;77.03
75656;BME280;64252;51.094;13.714;2022-11-20T10:20:01;99971.03;;;-1.35;76.32
75656;BME280;64252;51.094;13.714;2022-11-20T10:25:19;99957.41;;;-1.23;73.80
75656;BME280;64252;51.094;13.714;2022-11-20T10:27:57;99952.34;;;-1.12;72.97
75656;BME280;64252;51.094;13.714;2022-11-20T10:30:26;99954.53;;;-1.01;73.82
75656;BME280;64252;51.094;13.714;2022-11-20T10:32:54;99939.22;;;-0.72;72.80
75656;BME280;64252;51.094;13.714;2022-11-20T10:35:40;99939.88;;;-0.58;73.69
75656;BME280;64252;51.094;13.714;2022-11-20T10:38:15;99943.47;;;-0.49;71.39
75656;BME280;64252;51.094;13.714;2022-11-20T10:40:49;99953.28;;;-0.43;71.81
75656;BME280;64252;51.094;13.714;2022-11-20T10:43:19;99946.41;;;-0.54;71.49
75656;BME280;64252;51.094;13.714;2022-11-20T10:45:56;99956.34;;;-0.70;72.55
75656;BME280;64252;51.094;13.714;2022-11-20T10:48:25;99953.72;;;-0.84;72.14
75656;BME280;64252;51.094;13.714;2022-11-20T10:53:42;99945.09;;;-0.91;72.94
75656;BME280;64252;51.094;13.714;2022-11-20T10:56:35;99946.06;;;-0.96;72.60
75656;BME280;64252;51.094;13.714;2022-11-20T11:02:00;99930.75;;;-0.67;73.02
75656;BME280;64252;51.094;13.714;2022-11-20T11:04:44;99941.38;;;-0.52;71.57
75656;BME280;64252;51.094;13.714;2022-11-20T11:09:48;99935.97;;;-0.40;71.51
75656;BME280;64252;51.094;13.714;2022-11-20T11:12:13;99934.81;;;-0.22;71.24
75656;BME280;64252;51.094;13.714;2022-11-20T11:14:48;99926.44;;;-0.05;71.92
75656;BME280;64252;51.094;13.714;2022-11-20T11:25:40;99901.38;;;0.59;70.28
75656;BME280;64252;51.094;13.714;2022-11-20T11:28:40;99901.66;;;0.37;70.69
75656;BME280;64252;51.094;13.714;2022-11-20T11:31:06;99889.47;;;0.21;71.63
75656;BME280;64252;51.094;13.714;2022-11-20T11:33:32;99900.28;;;0.14;72.15
75656;BME280;64252;51.094;13.714;2022-11-20T11:36:16;99899.47;;;0.13;73.11
75656;BME280;64252;51.094;13.714;2022-11-20T11:38:43;99891.28;;;0.17;73.83
75656;BME280;64252;51.094;13.714;2022-11-20T11:41:16;99888.91;;;0.36;73.28
75656;BME280;64252;51.094;13.714;2022-11-20T11:44:01;99877.06;;;0.56;72.78
75656;BME280;64252;51.094;13.714;2022-11-20T11:46:55;99874.16;;;0.44;72.86
75656;BME280;64252;51.094;13.714;2022-11-20T11:49:22;99878.41;;;0.50;73.36
75656;BME280;64252;51.094;13.714;2022-11-20T11:52:01;99872.94;;;0.62;73.34
75656;BME280;64252;51.094;13.714;2022-11-20T11:54:43;99858.09;;;0.58;72.85
75656;BME280;64252;51.094;13.714;2022-11-20T11:57:20;99865.13;;;0.56;73.04
75656;BME280;64252;51.094;13.714;2022-11-20T12:00:01;99862.31;;;0.64;73.25
75656;BME280;64252;51.094;13.714;2022-11-20T12:02:34;99861.91;;;0.74;73.44
75656;BME280;64252;51.094;13.714;2022-11-20T12:07:47;99858.31;;;0.74;72.28
75656;BME280;64252;51.094;13.714;2022-11-20T12:14:17;99850.94;;;0.49;73.68
75656;BME280;64252;51.094;13.714;2022-11-20T12:16:24;99848.97;;;0.20;73.81
75656;BME280;64252;51.094;13.714;2022-11-20T12:18:51;99850.88;;;-0.02;75.35
75656;BME280;64252;51.094;13.714;2022-11-20T12:21:18;99845.16;;;-0.05;75.85
75656;BME280;64252;51.094;13.714;2022-11-20T12:40:44;99852.50;;;0.37;75.87
75656;BME280;64252;51.094;13.714;2022-11-20T12:49:05;99848.41;;;0.35;75.22
75656;BME280;64252;51.094;13.714;2022-11-20T12:52:04;99845.34;;;0.28;76.58
75656;BME280;64252;51.094;13.714;2022-11-20T12:54:53;99847.41;;;0.39;75.43
75656;BME280;64252;51.094;13.714;2022-11-20T13:00:18;99846.69;;;0.51;75.35
75656;BME280;64252;51.094;13.714;2022-11-20T13:08:23;99848.91;;;0.37;76.90
75656;BME280;64252;51.094;13.714;2022-11-20T13:10:51;99844.94;;;0.38;76.33
75656;BME280;64252;51.094;13.714;2022-11-20T13:13:35;99844.94;;;0.38;76.91
75656;BME280;64252;51.094;13.714;2022-11-20T13:18:56;99847.16;;;0.53;76.57
75656;BME280;64252;51.094;13.714;2022-11-20T13:21:35;99839.44;;;0.59;77.49
75656;BME280;64252;51.094;13.714;2022-11-20T13:26:46;99825.63;;;0.50;77.25
75656;BME280;64252;51.094;13.714;2022-11-20T13:29:17;99820.75;;;0.47;77.72
75656;BME280;64252;51.094;13.714;2022-11-20T13:31:45;99814.72;;;0.45;77.46
75656;BME280;64252;51.094;13.714;2022-11-20T13:34:26;99821.13;;;0.37;77.58
75656;BME280;64252;51.094;13.714;2022-11-20T13:36:57;99824.09;;;0.32;77.84
75656;BME280;64252;51.094;13.714;2022-11-20T13:41:56;99825.44;;;0.26;78.01
75656;BME280;64252;51.094;13.714;2022-11-20T13:44:38;99823.53;;;0.18;78.01
75656;BME280;64252;51.094;13.714;2022-11-20T13:47:23;99818.78;;;0.10;77.01
75656;BME280;64252;51.094;13.714;2022-11-20T13:49:51;99816.03;;;0.10;77.41
75656;BME280;64252;51.094;13.714;2022-11-20T13:58:12;99827.88;;;-0.11;78.34
75656;BME280;64252;51.094;13.714;2022-11-20T14:00:50;99831.47;;;-0.19;78.01
75656;BME280;64252;51.094;13.714;2022-11-20T14:03:24;99822.19;;;-0.23;77.88
75656;BME280;64252;51.094;13.714;2022-11-20T14:06:02;99843.78;;;-0.28;77.80
75656;BME280;64252;51.094;13.714;2022-11-20T14:08:42;99828.09;;;-0.33;77.84
75656;BME280;64252;51.094;13.714;2022-11-20T14:11:18;99841.00;;;-0.37;77.81
75656;BME280;64252;51.094;13.714;2022-11-20T14:14:10;99838.56;;;-0.47;77.83
75656;BME280;64252;51.094;13.714;2022-11-20T14:16:38;99840.91;;;-0.58;78.75
75656;BME280;64252;51.094;13.714;2022-11-20T14:21:53;99826.69;;;-0.56;78.97
75656;BME280;64252;51.094;13.714;2022-11-20T14:24:23;99821.50;;;-0.66;79.07
75656;BME280;64252;51.094;13.714;2022-11-20T14:26:50;99810.09;;;-0.73;79.53
75656;BME280;64252;51.094;13.714;2022-11-20T14:29:18;99822.47;;;-0.79;79.55
75656;BME280;64252;51.094;13.714;2022-11-20T14:31:46;99820.53;;;-0.88;80.35
75656;BME280;64252;51.094;13.714;2022-11-20T14:34:19;99824.28;;;-1.01;81.31
75656;BME280;64252;51.094;13.714;2022-11-20T14:36:46;99835.03;;;-1.08;82.07
75656;BME280;64252;51.094;13.714;2022-11-20T14:39:20;99820.72;;;-1.18;81.78
75656;BME280;64252;51.094;13.714;2022-11-20T14:41:53;99826.22;;;-1.27;82.43